地図

経路データ

SID SEASON NUMBER BASIN SUBBASIN NAME ISO_TIME NATURE LAT LON WMO_WIND WMO_PRES WMO_AGENCY TRACK_TYPE DIST2LAND LANDFALL IFLAG USA_AGENCY USA_ATCF_ID USA_LAT USA_LON USA_RECORD USA_STATUS USA_WIND USA_PRES USA_SSHS USA_R34_NE USA_R34_SE USA_R34_SW USA_R34_NW USA_R50_NE USA_R50_SE USA_R50_SW USA_R50_NW USA_R64_NE USA_R64_SE USA_R64_SW USA_R64_NW USA_POCI USA_ROCI USA_RMW USA_EYE TOKYO_LAT TOKYO_LON TOKYO_GRADE TOKYO_WIND TOKYO_PRES TOKYO_R50_DIR TOKYO_R50_LONG TOKYO_R50_SHORT TOKYO_R30_DIR TOKYO_R30_LONG TOKYO_R30_SHORT TOKYO_LAND CMA_LAT CMA_LON CMA_CAT CMA_WIND CMA_PRES HKO_LAT HKO_LON HKO_CAT HKO_WIND HKO_PRES NEWDELHI_LAT NEWDELHI_LON NEWDELHI_GRADE NEWDELHI_WIND NEWDELHI_PRES NEWDELHI_CI NEWDELHI_DP NEWDELHI_POCI REUNION_LAT REUNION_LON REUNION_TYPE REUNION_WIND REUNION_PRES REUNION_TNUM REUNION_CI REUNION_RMW REUNION_R34_NE REUNION_R34_SE REUNION_R34_SW REUNION_R34_NW REUNION_R50_NE REUNION_R50_SE REUNION_R50_SW REUNION_R50_NW REUNION_R64_NE REUNION_R64_SE REUNION_R64_SW REUNION_R64_NW BOM_LAT BOM_LON BOM_TYPE BOM_WIND BOM_PRES BOM_TNUM BOM_CI BOM_RMW BOM_R34_NE BOM_R34_SE BOM_R34_SW BOM_R34_NW BOM_R50_NE BOM_R50_SE BOM_R50_SW BOM_R50_NW BOM_R64_NE BOM_R64_SE BOM_R64_SW BOM_R64_NW BOM_ROCI BOM_POCI BOM_EYE BOM_POS_METHOD BOM_PRES_METHOD NADI_LAT NADI_LON NADI_CAT NADI_WIND NADI_PRES WELLINGTON_LAT WELLINGTON_LON WELLINGTON_WIND WELLINGTON_PRES DS824_LAT DS824_LON DS824_STAGE DS824_WIND DS824_PRES TD9636_LAT TD9636_LON TD9636_STAGE TD9636_WIND TD9636_PRES TD9635_LAT TD9635_LON TD9635_WIND TD9635_PRES TD9635_ROCI NEUMANN_LAT NEUMANN_LON NEUMANN_CLASS NEUMANN_WIND NEUMANN_PRES MLC_LAT MLC_LON MLC_CLASS MLC_WIND MLC_PRES USA_GUST BOM_GUST BOM_GUST_PER REUNION_GUST REUNION_GUST_PER USA_SEAHGT USA_SEARAD_NE USA_SEARAD_SE USA_SEARAD_SW USA_SEARAD_NW STORM_SPEED STORM_DIR
1947133N16138 1947 35 WP MM BERNIDA 1947-05-13 00:00:00 TS 15.8000 137.700 main 1376 1376 O________OOO__ jtwc_wp WP021947 15.8000 137.700 25 -1 15.8000 137.700 TC 25 15.8000 137.700 1 25 15.8000 137.700 25 1004 180 11 48
1947133N16138 1947 35 WP MM BERNIDA 1947-05-13 03:00:00 TS 16.1545 138.104 main 1430 1430 P________PPP__ WP021947 16.1527 138.110 27 -1 16.1527 138.110 TC 27 16.1599 138.088 1 30 16.1527 138.110 27 1003 180 10 47
1947133N16138 1947 35 WP MM BERNIDA 1947-05-13 06:00:00 TS 16.5039 138.493 main 1480 1480 O________OPO__ jtwc_wp WP021947 16.5000 138.500 30 -1 16.5000 138.500 TC 30 16.5156 138.471 1 35 16.5000 138.500 30 1003 180 10 46
1947133N16138 1947 35 WP MM BERNIDA 1947-05-13 09:00:00 TS 16.8477 138.854 main 1531 1531 P________PPP__ WP021947 16.8424 138.858 37 0 16.8424 138.858 TC 37 16.8635 138.844 1 40 16.8424 138.858 37 1002 210 10 44
1947133N16138 1947 35 WP MM BERNIDA 1947-05-13 12:00:00 TS 17.2000 139.200 main 1576 1576 O________OOO__ jtwc_wp WP021947 17.2000 139.200 45 0 17.2000 139.200 TC 45 17.2000 139.200 2 45 17.2000 139.200 45 1001 240 10 42
1947133N16138 1947 35 WP MM BERNIDA 1947-05-13 15:00:00 TS 17.5818 139.557 main 1631 1631 P________PPP__ WP021947 17.6000 139.565 47 0 17.6000 139.565 TC 47 17.5270 139.535 2 48 17.6000 139.565 47 1000 240 10 41
1947133N16138 1947 35 WP MM BERNIDA 1947-05-13 18:00:00 TS 17.9668 139.887 main 1676 1676 O________OPO__ jtwc_wp WP021947 18.0000 139.900 50 0 18.0000 139.900 TC 50 17.8674 139.846 2 52 18.0000 139.900 50 999 240 9 38
1947133N16138 1947 35 WP MM BERNIDA 1947-05-13 21:00:00 TS 18.3078 140.158 main 1709 1681 P________PPP__ WP021947 18.3274 140.165 55 0 18.3274 140.165 TC 55 18.2490 140.135 2 56 18.3274 140.165 55 997 300 9 34
1947133N16138 1947 35 WP MM BERNIDA 1947-05-14 00:00:00 TS 18.7000 140.400 main 1681 1644 O________OOO__ jtwc_wp WP021947 18.7000 140.400 60 0 18.7000 140.400 TC 60 18.7000 140.400 2 60 18.7000 140.400 60 996 360 10 28
1947133N16138 1947 35 WP MM BERNIDA 1947-05-14 03:00:00 TS 19.2023 140.662 main 1650 1600 P________PPP__ WP021947 19.1975 140.658 60 0 19.1975 140.658 TC 60 19.2167 140.675 2 61 19.1975 140.658 60 993 390 12 23
1947133N16138 1947 35 WP MM BERNIDA 1947-05-14 06:00:00 TS 19.8019 140.906 main 1600 1543 O________OPO__ jtwc_wp WP021947 19.8000 140.900 60 0 19.8000 140.900 TC 60 19.8078 140.924 2 62 19.8000 140.900 60 990 420 13 19
1947133N16138 1947 35 WP MM BERNIDA 1947-05-14 09:00:00 TS 20.4644 141.126 main 1532 1465 P________PPP__ WP021947 20.4625 141.123 62 0 20.4625 141.123 TC 62 20.4699 141.137 2 63 20.4625 141.123 62 984 360 15 15
1947133N16138 1947 35 WP MM BERNIDA 1947-05-14 12:00:00 TS 21.2000 141.300 main 1465 1396 O________OOO__ jtwc_wp WP021947 21.2000 141.300 65 1 21.2000 141.300 TC 65 21.2000 141.300 3 65 21.2000 141.300 65 979 300 15 11
1947133N16138 1947 35 WP MM BERNIDA 1947-05-14 15:00:00 TS 21.9738 141.426 main 1386 1307 P________PPP__ WP021947 21.9700 141.430 70 1 21.9700 141.430 TC 70 21.9852 141.413 3 68 21.9700 141.430 70 976 300 16 6
1947133N16138 1947 35 WP MM BERNIDA 1947-05-14 18:00:00 TS 22.8081 141.494 main 1307 1226 O________OPO__ jtwc_wp WP021947 22.8000 141.500 75 1 22.8000 141.500 TC 75 22.8325 141.476 3 72 22.8000 141.500 75 974 300 17 3
1947133N16138 1947 35 WP MM BERNIDA 1947-05-14 21:00:00 TS 23.6977 141.517 main 1216 1127 P________PPP__ WP021947 23.6925 141.523 77 1 23.6925 141.523 TC 77 23.7135 141.500 3 76 23.6925 141.523 77 973 270 18 0
1947133N16138 1947 35 WP MM BERNIDA 1947-05-15 00:00:00 TS 24.6000 141.500 main 1127 1043 O________OOO__ jtwc_wp WP021947 24.6000 141.500 80 1 24.6000 141.500 TC 80 24.6000 141.500 4 80 24.6000 141.500 80 972 240 18 358
1947133N16138 1947 35 WP MM BERNIDA 1947-05-15 03:00:00 TS 25.4656 141.444 main 1034 958 P________PPP__ WP021947 25.4575 141.450 80 1 25.4575 141.450 TC 80 25.4900 141.423 4 77 25.4575 141.450 80 972 240 17 356
1947133N16138 1947 35 WP MM BERNIDA 1947-05-15 06:00:00 TS 26.3185 141.384 main 958 869 O________OPO__ jtwc_wp WP021947 26.3000 141.400 80 1 26.3000 141.400 TC 80 26.3740 141.336 4 75 26.3000 141.400 80 973 240 17 356
1947133N16138 1947 35 WP MM BERNIDA 1947-05-15 09:00:00 TS 27.1732 141.327 main 859 776 P________PPP__ WP021947 27.1573 141.334 75 1 27.1573 141.334 TC 75 27.2209 141.305 4 72 27.1573 141.334 75 975 240 17 0
1947133N16138 1947 35 WP MM BERNIDA 1947-05-15 12:00:00 TS 28.0000 141.400 main 776 701 O________OOO__ jtwc_wp WP021947 28.0000 141.400 70 1 28.0000 141.400 TC 70 28.0000 141.400 4 70 28.0000 141.400 70 977 240 17 12
1947133N16138 1947 35 WP MM BERNIDA 1947-05-15 15:00:00 TS 28.8229 141.711 main 701 636 P________PPP__ WP021947 28.8675 141.724 70 1 28.8675 141.724 TC 70 28.6891 141.672 4 67 28.8675 141.724 70 981 240 17 24
1947133N16138 1947 35 WP MM BERNIDA 1947-05-15 18:00:00 TS 29.5363 142.177 main 639 602 O________OPO__ jtwc_wp WP021947 29.6000 142.200 70 1 29.6000 142.200 TC 70 29.3029 142.094 4 65 29.6000 142.200 70 986 240 14 34
1947133N16138 1947 35 WP MM BERNIDA 1947-05-15 21:00:00 TS 30.0147 142.628 main 602 584 P________PPP__ WP021947 30.0363 142.613 65 1 30.0363 142.613 TC 65 29.8652 142.619 4 62 30.0778 142.700 65 988 240 12 46
1947133N16138 1947 35 WP MM BERNIDA 1947-05-16 00:00:00 TS 30.4000 143.200 main 588 581 O________OOO__ jtwc_wp WP021947 30.4000 143.200 60 0 30.4000 143.200 TC 60 30.4000 143.200 2 60 30.4000 143.200 60 991 240 16 54
1947133N16138 1947 35 WP MM BERNIDA 1947-05-16 03:00:00 TS 30.9585 144.138 main 580 580 P________P____ WP021947 30.9585 144.138 52 0 30.9585 144.138 TC 52 2 20 57
1947133N16138 1947 35 WP MM BERNIDA 1947-05-16 06:00:00 TS 31.5000 145.200 main 606 606 O________O____ jtwc_wp WP021947 31.5000 145.200 45 0 31.5000 145.200 TC 45 2 19 63
1947133N16138 1947 35 WP MM BERNIDA 1947-05-16 09:00:00 TS 31.8351 146.177 main 654 646 P________P____ WP021947 31.8351 146.177 40 0 31.8351 146.177 TC 40 2 17 65
1947133N16138 1947 35 WP MM BERNIDA 1947-05-16 12:00:00 TS 32.2000 147.000 main 683 679 O________O____ jtwc_wp WP021947 32.2000 147.000 35 0 32.2000 147.000 TC 35 15 48
1947133N16138 1947 35 WP MM BERNIDA 1947-05-16 15:00:00 TS 32.8252 147.487 main 686 678 P________P____ WP021947 32.8252 147.487 35 0 32.8252 147.487 TC 35 16 33
1947133N16138 1947 35 WP MM BERNIDA 1947-05-16 18:00:00 TS 33.5000 148.000 main 693 693 O________O____ jtwc_wp WP021947 33.5000 148.000 35 0 33.5000 148.000 TC 35 17 43
1947133N16138 1947 35 WP MM BERNIDA 1947-05-16 21:00:00 TS 34.0485 148.877 main 752 749 P________P____ WP021947 34.0485 148.877 32 -1 34.0485 148.877 TC 32 19 59
1947133N16138 1947 35 WP MM BERNIDA 1947-05-17 00:00:00 TS 34.5000 150.000 main 836 O________O____ jtwc_wp WP021947 34.5000 150.000 30 -1 34.5000 150.000 TC 30 21 64

デジタル台風データ・検索

IBTrACS Databaseについて

本データベースは、米国NOAAが公開する1842年以降の世界の熱帯低気圧のベストトラックデータアーカイブInternational Best Track Archive for Climate Stewardship (IBTrACS)を、ウェブで閲覧しやすい形式に変換したものです。

最終更新日:2021-11-26